Time;durP1;ratioP1;P1;durP2;ratioP2;P2;SDS_P1;SDS_P2;PMS_P1;PMS_P2;Temp;Humidity;BMP_temperature;BMP_pressure;BME280_temperature;BME280_humidity;BME280_pressure;Samples;Min_cycle;Max_cycle;Signal;HPM_P1;HPM_P2
2021/12/22 00:00:45;;;;;;;21.97;16.30;;;;;;;0.24;52.76;102601.00;2079879;28;20209;-65
2021/12/22 00:01:46;;;;;;;19.20;13.97;;;;;;;-0.21;52.75;102528.63;2080465;28;20180;-64
2021/12/22 00:02:48;;;;;;;20.27;12.93;;;;;;;0.23;53.10;102598.56;2080963;28;20717;-64
2021/12/22 00:03:48;;;;;;;15.27;10.00;;;;;;;0.13;53.78;102582.50;2080514;28;20183;-65
2021/12/22 00:04:50;;;;;;;14.40;8.73;;;;;;;0.24;53.40;102609.16;2080427;28;20685;-65
2021/12/22 00:05:51;;;;;;;16.08;10.10;;;;;;;0.24;53.21;102595.53;2081167;28;20668;-65
2021/12/22 00:06:53;;;;;;;17.85;10.52;;;;;;;0.23;53.12;102599.38;2080597;28;20218;-65
2021/12/22 00:07:54;;;;;;;15.07;10.00;;;;;;;0.22;53.24;102602.41;2080016;28;20182;-64
2021/12/22 00:08:54;;;;;;;14.82;9.88;;;;;;;0.22;53.58;102597.75;2081187;28;20890;-64
2021/12/22 00:09:56;;;;;;;14.33;9.80;;;;;;;0.23;53.29;102599.38;2081203;28;20177;-64
2021/12/22 00:10:56;;;;;;;13.82;10.02;;;;;;;0.19;52.94;102592.94;2080174;28;20184;-65
2021/12/22 00:11:57;;;;;;;14.73;9.60;;;;;;;0.20;52.89;102596.47;2081027;28;20205;-65
2021/12/22 00:12:57;;;;;;;16.40;9.73;;;;;;;0.16;52.76;102592.78;2081295;28;20174;-65
2021/12/22 00:13:58;;;;;;;13.90;9.27;;;;;;;0.01;52.88;102574.13;2080372;28;20192;-64
2021/12/22 00:14:58;;;;;;;15.67;10.80;;;;;;;0.15;54.22;102602.88;2080713;28;20208;-65
2021/12/22 00:15:59;;;;;;;17.33;10.60;;;;;;;0.15;52.89;102600.13;2080872;28;20180;-65
2021/12/22 00:16:59;;;;;;;14.27;9.73;;;;;;;0.13;52.90;102599.66;2081037;28;20195;-65
2021/12/22 00:18:00;;;;;;;16.17;9.67;;;;;;;0.14;53.07;102630.44;2080407;28;20560;-64
2021/12/22 00:19:00;;;;;;;16.50;9.83;;;;;;;0.09;53.46;102595.13;2080983;28;20177;-64
2021/12/22 00:20:01;;;;;;;15.27;9.67;;;;;;;-1.21;53.58;102395.16;2080762;28;20267;-65
2021/12/22 00:21:03;;;;;;;16.73;10.38;;;;;;;0.12;53.16;102606.22;2080389;28;20176;-65
2021/12/22 00:22:04;;;;;;;15.25;10.10;;;;;;;0.09;53.46;102600.59;2080986;28;20182;-64
2021/12/22 00:23:05;;;;;;;16.37;9.73;;;;;;;-0.44;53.82;102512.66;2081247;28;20176;-65
2021/12/22 00:24:06;;;;;;;15.68;10.02;;;;;;;0.09;53.59;102608.75;2080856;28;20197;-65
2021/12/22 00:25:07;;;;;;;16.03;9.67;;;;;;;0.06;53.88;102604.75;2081178;28;20180;-64
2021/12/22 00:26:07;;;;;;;14.57;9.27;;;;;;;-0.03;54.17;102590.28;2080740;28;20211;-65
2021/12/22 00:27:08;;;;;;;15.50;10.30;;;;;;;-0.38;53.82;102539.47;2081279;28;20238;-65
2021/12/22 00:28:08;;;;;;;16.80;11.10;;;;;;;-0.71;53.74;102497.28;2080207;28;20249;-65
2021/12/22 00:29:10;;;;;;;18.63;11.17;;;;;;;0.02;53.57;102598.31;2081037;28;20188;-65
2021/12/22 00:30:10;;;;;;;17.05;10.15;;;;;;;0.05;53.61;102605.06;2080606;28;20411;-65
2021/12/22 00:31:14;;;;;;;15.53;10.20;;;;;;;0.06;53.72;102598.50;2080219;28;20195;-65
2021/12/22 00:32:16;;;;;;;19.30;12.80;;;;;;;0.04;53.33;102628.81;2080796;28;20258;-64
2021/12/22 00:33:19;;;;;;;17.13;10.98;;;;;;;0.06;54.12;102598.50;2081160;28;20226;-65
2021/12/22 00:34:19;;;;;;;17.75;11.57;;;;;;;0.05;53.82;102602.31;2080813;28;20176;-65
2021/12/22 00:35:24;;;;;;;16.67;10.53;;;;;;;0.07;53.48;102605.56;2081100;28;20237;-64
2021/12/22 00:36:25;;;;;;;16.00;11.30;;;;;;;-0.07;53.58;102581.13;2080926;28;20176;-65
2021/12/22 00:37:28;;;;;;;16.30;11.48;;;;;;;-0.17;54.32;102564.25;2080414;28;20296;-64
2021/12/22 00:38:28;;;;;;;18.27;11.25;;;;;;;0.07;53.93;102608.28;2079449;28;20176;-65
2021/12/22 00:39:29;;;;;;;17.07;10.17;;;;;;;0.10;54.20;102605.72;2081201;28;20172;-65
2021/12/22 00:40:30;;;;;;;19.37;9.67;;;;;;;0.14;53.66;102611.34;2079536;28;20180;-64
2021/12/22 00:41:30;;;;;;;16.87;10.80;;;;;;;0.11;54.10;102607.34;2080031;28;20645;-65
2021/12/22 00:42:31;;;;;;;18.10;12.03;;;;;;;0.08;53.53;102610.72;2080826;28;20195;-65
2021/12/22 00:43:31;;;;;;;14.83;10.17;;;;;;;0.00;53.27;102594.31;2081145;28;20187;-65
2021/12/22 00:44:32;;;;;;;17.17;10.17;;;;;;;0.13;53.86;102612.47;2080823;28;20187;-65
2021/12/22 00:45:35;;;;;;;15.53;11.40;;;;;;;0.14;53.37;102614.09;2081012;28;20172;-65
2021/12/22 00:46:35;;;;;;;14.38;10.60;;;;;;;0.14;52.95;102614.09;2080646;28;20176;-64
2021/12/22 00:47:36;;;;;;;14.60;10.57;;;;;;;0.16;52.82;102611.88;2081050;28;20271;-65
2021/12/22 00:48:36;;;;;;;15.63;11.07;;;;;;;0.02;53.11;102598.31;2080152;28;20188;-64
2021/12/22 00:49:37;;;;;;;14.80;10.20;;;;;;;0.09;53.08;102606.84;2080261;28;20187;-65
2021/12/22 00:50:40;;;;;;;14.57;10.00;;;;;;;0.19;53.01;102624.84;2079456;28;20190;-64
2021/12/22 00:51:40;;;;;;;14.27;10.10;;;;;;;0.20;52.71;102621.00;2080794;28;20176;-65
2021/12/22 00:52:41;;;;;;;15.77;9.90;;;;;;;0.15;52.58;102611.06;2080658;28;20187;-64
2021/12/22 00:53:41;;;;;;;14.47;9.90;;;;;;;0.22;52.55;102618.78;2080713;28;20194;-65
2021/12/22 00:54:41;;;;;;;10.13;7.60;;;;;;;0.21;52.76;102615.25;2080663;28;20260;-64
2021/12/22 00:55:43;;;;;;;11.23;7.80;;;;;;;0.22;52.66;102619.56;2080896;28;20184;-64
2021/12/22 00:56:43;;;;;;;14.35;9.43;;;;;;;0.24;52.89;102613.81;2080775;28;20227;-64
2021/12/22 00:57:44;;;;;;;9.60;7.03;;;;;;;-1.13;53.32;102398.28;2080930;28;20188;-65
2021/12/22 00:58:45;;;;;;;11.02;7.72;;;;;;;0.25;52.91;102618.13;2079986;28;20207;-64
2021/12/22 00:59:47;;;;;;;15.47;9.70;;;;;;;0.26;52.43;102617.81;2080845;28;20616;-65
2021/12/22 01:00:49;;;;;;;15.55;9.20;;;;;;;0.25;52.31;102613.50;2079657;28;20188;-65
2021/12/22 01:01:49;;;;;;;11.65;8.02;;;;;;;0.16;52.38;102614.59;2080783;28;20732;-65
2021/12/22 01:02:50;;;;;;;11.50;8.00;;;;;;;0.17;52.36;102618.91;2080665;28;20718;-65
2021/12/22 01:03:51;;;;;;;9.90;7.50;;;;;;;0.15;52.10;102616.50;2080784;28;20195;-65
2021/12/22 01:04:51;;;;;;;13.83;9.23;;;;;;;0.13;52.20;102612.47;2080850;28;20630;-64
2021/12/22 01:05:52;;;;;;;16.07;9.87;;;;;;;0.08;52.32;102615.34;2080670;28;20180;-64
2021/12/22 01:06:53;;;;;;;14.38;10.10;;;;;;;0.01;52.18;102620.44;2080816;28;20259;-64
2021/12/22 01:07:54;;;;;;;17.80;10.25;;;;;;;-0.03;52.29;102620.28;2080072;28;20173;-65
2021/12/22 01:08:55;;;;;;;13.97;9.23;;;;;;;-0.08;52.38;102616.88;2080799;28;20180;-64
2021/12/22 01:09:55;;;;;;;13.87;9.60;;;;;;;-0.16;52.74;102612.97;2080639;28;20251;-65
2021/12/22 01:10:57;;;;;;;14.77;10.60;;;;;;;-0.17;52.81;102612.50;2079453;28;20183;-64
2021/12/22 01:11:57;;;;;;;14.75;9.93;;;;;;;-0.18;52.87;102611.69;2080686;28;20656;-65
2021/12/22 01:13:00;;;;;;;16.13;11.00;;;;;;;-0.22;52.95;102609.91;2080670;28;20538;-65
2021/12/22 01:14:02;;;;;;;14.32;10.65;;;;;;;-0.24;53.94;102616.44;2080592;28;20180;-64
2021/12/22 01:15:05;;;;;;;17.45;11.95;;;;;;;-0.25;53.54;102616.78;2080969;28;20205;-64
2021/12/22 01:16:06;;;;;;;16.60;11.27;;;;;;;-0.31;53.70;102604.38;2080456;28;20206;-64
2021/12/22 01:17:10;;;;;;;15.47;10.53;;;;;;;-0.43;53.34;102585.09;2080087;28;20185;-65
2021/12/22 01:18:18;;;;;;;18.30;11.48;;;;;;;-0.27;53.82;102614.38;2079389;28;20179;-64
2021/12/22 01:19:27;;;;;;;18.02;11.02;;;;;;;-0.29;53.64;102615.78;2080848;28;20172;-64
2021/12/22 01:20:34;;;;;;;15.07;11.82;;;;;;;-0.31;54.53;102609.84;2080210;28;20172;-64
2021/12/22 01:21:43;;;;;;;19.70;13.38;;;;;;;-0.46;54.28;102593.91;2080570;28;20565;-65
2021/12/22 01:24:00;;;;;;;21.17;14.80;;;;;;;-0.35;54.39;102614.31;2080904;28;20192;-65
2021/12/22 01:25:03;;;;;;;23.13;15.57;;;;;;;-0.36;54.21;102610.78;2080919;28;20163;-64
2021/12/22 01:26:06;;;;;;;24.13;15.98;;;;;;;-0.37;54.32;102613.81;2080544;28;20586;-65
2021/12/22 01:27:09;;;;;;;21.88;15.50;;;;;;;-0.38;54.60;102609.47;2080905;28;20164;-64
2021/12/22 01:28:11;;;;;;;22.95;14.52;;;;;;;-0.38;54.30;102607.56;2079217;28;20799;-65
2021/12/22 01:29:13;;;;;;;25.13;15.65;;;;;;;-0.66;54.21;102553.56;2080667;28;20568;-64
2021/12/22 01:30:23;;;;;;;23.48;15.70;;;;;;;-0.37;54.23;102603.72;2080426;28;20210;-64
2021/12/22 01:31:25;;;;;;;24.55;15.52;;;;;;;-0.37;54.41;102597.47;2080025;28;20275;-64
2021/12/22 01:32:26;;;;;;;21.60;14.23;;;;;;;-0.37;54.57;102600.19;2080722;28;20736;-64
2021/12/22 01:33:26;;;;;;;20.55;12.68;;;;;;;-0.39;54.63;102596.97;2080212;28;20218;-65
2021/12/22 01:34:28;;;;;;;17.30;11.67;;;;;;;-0.94;54.71;102513.94;2079911;28;20185;-64
2021/12/22 01:35:32;;;;;;;19.10;11.70;;;;;;;-0.40;54.98;102604.34;2080796;28;20718;-64
2021/12/22 01:36:33;;;;;;;21.90;13.30;;;;;;;-0.91;54.83;102533.19;2080491;28;20558;-64
2021/12/22 01:37:34;;;;;;;17.30;12.20;;;;;;;-0.41;55.19;102597.28;2080866;28;20272;-64
2021/12/22 01:38:35;;;;;;;20.58;12.65;;;;;;;-0.54;54.96;102578.28;2079866;28;20665;-64
2021/12/22 01:39:35;;;;;;;16.07;10.97;;;;;;;-1.03;55.25;102499.47;2080858;28;20662;-65
2021/12/22 01:40:40;;;;;;;14.50;10.30;;;;;;;-0.47;54.95;102593.09;2079766;28;20607;-64
2021/12/22 01:41:40;;;;;;;14.30;9.60;;;;;;;-0.49;55.10;102605.41;2080588;28;20182;-65
2021/12/22 01:42:42;;;;;;;16.63;11.17;;;;;;;-0.48;55.17;102598.03;2080501;28;20660;-64
2021/12/22 01:43:43;;;;;;;12.52;9.18;;;;;;;-1.54;54.97;102441.16;2080588;28;20181;-64
2021/12/22 01:49:09;;;;;;;15.25;9.07;;;;;;;-0.52;55.17;102599.78;2080552;28;20221;-65
2021/12/22 01:49:16;;;;;;;11.23;7.80;;;;;;;-0.57;55.13;102599.91;2080843;28;20574;-64
2021/12/22 01:50:34;;;;;;;13.60;9.32;;;;;;;-0.60;55.56;102596.66;2080302;28;20175;-65
2021/12/22 01:51:46;;;;;;;22.23;12.27;;;;;;;-0.60;55.56;102593.94;2080472;28;20251;-64
2021/12/22 01:52:47;;;;;;;22.77;11.75;;;;;;;-0.59;55.37;102592.03;2080435;28;20249;-65
2021/12/22 01:53:49;;;;;;;15.43;10.07;;;;;;;-0.86;55.41;102538.50;2080678;28;20175;-64
2021/12/22 01:55:03;;;;;;;14.63;9.77;;;;;;;-0.62;54.94;102585.28;2080384;28;20623;-64
2021/12/22 01:56:19;;;;;;;14.27;8.90;;;;;;;-0.63;55.28;102579.38;2080280;28;20169;-65
2021/12/22 01:57:21;;;;;;;12.90;8.30;;;;;;;-0.61;54.97;102580.66;2080018;28;20171;-65
2021/12/22 01:58:33;;;;;;;14.68;8.45;;;;;;;-1.68;55.08;102408.59;2079019;28;20670;-65
2021/12/22 01:59:34;;;;;;;12.70;8.40;;;;;;;-0.60;55.22;102574.09;2080760;28;20175;-64
2021/12/22 02:00:35;;;;;;;15.05;9.85;;;;;;;-1.02;54.55;102503.00;2079698;28;20180;-64
2021/12/22 02:01:36;;;;;;;15.13;9.73;;;;;;;-0.71;54.25;102553.69;2080550;28;20190;-64
2021/12/22 02:02:36;;;;;;;15.98;9.73;;;;;;;-1.06;53.96;102500.91;2080255;28;20720;-64
2021/12/22 02:03:38;;;;;;;14.10;9.97;;;;;;;-0.58;53.98;102573.78;2080698;28;20573;-65
2021/12/22 02:04:41;;;;;;;15.85;10.35;;;;;;;-0.63;54.15;102576.63;2080199;28;20183;-64
2021/12/22 02:05:41;;;;;;;18.52;10.60;;;;;;;-0.68;53.92;102578.38;2080475;28;20567;-64
2021/12/22 02:06:44;;;;;;;15.13;9.90;;;;;;;-0.72;53.88;102580.09;2080524;28;20202;-65
2021/12/22 02:07:45;;;;;;;16.92;10.02;;;;;;;-0.90;54.32;102555.78;2080674;28;20205;-64
2021/12/22 02:08:46;;;;;;;14.43;9.87;;;;;;;-1.03;54.01;102534.06;2079124;28;20208;-64
2021/12/22 02:10:48;;;;;;;17.63;10.20;;;;;;;-0.80;54.60;102580.03;2079441;28;20619;-64
2021/12/22 02:11:48;;;;;;;14.20;9.93;;;;;;;-0.82;55.30;102574.88;2079819;28;20237;-65
2021/12/22 02:12:52;;;;;;;16.40;9.93;;;;;;;-1.24;55.29;102511.16;2079880;28;20179;-64
2021/12/22 02:14:01;;;;;;;14.43;9.23;;;;;;;-1.77;55.65;102442.22;2080414;28;20175;-64
2021/12/22 02:15:03;;;;;;;12.90;9.15;;;;;;;-0.87;55.29;102574.22;2080658;28;20278;-64
2021/12/22 02:16:07;;;;;;;12.60;8.75;;;;;;;-1.09;55.23;102538.81;2080285;28;20172;-64
2021/12/22 02:17:10;;;;;;;12.38;8.95;;;;;;;-0.87;55.55;102569.56;2080489;28;20183;-64
2021/12/22 02:18:16;;;;;;;10.57;7.55;;;;;;;-0.98;55.52;102553.00;2079603;28;20184;-64
2021/12/22 02:19:17;;;;;;;10.90;7.60;;;;;;;-0.88;56.64;102576.13;2080505;28;20175;-64
2021/12/22 02:20:19;;;;;;;11.63;9.00;;;;;;;-1.03;55.71;102553.13;2080130;28;20190;-64
2021/12/22 02:21:22;;;;;;;13.13;9.10;;;;;;;-0.88;55.53;102569.88;2080023;28;20176;-64
2021/12/22 02:22:25;;;;;;;12.48;9.40;;;;;;;-0.88;55.68;102573.41;2080417;28;20185;-64
2021/12/22 02:23:26;;;;;;;12.25;8.35;;;;;;;-0.87;55.88;102574.22;2080630;28;20632;-65
2021/12/22 02:24:26;;;;;;;13.20;9.13;;;;;;;-0.84;55.68;102573.59;2080327;28;20191;-64
2021/12/22 02:25:35;;;;;;;14.37;9.70;;;;;;;-1.42;55.19;102480.31;2080462;28;20184;-65
2021/12/22 02:26:41;;;;;;;10.63;8.52;;;;;;;-0.83;55.55;102560.78;2080250;28;20207;-65
2021/12/22 02:27:53;;;;;;;14.05;9.40;;;;;;;-0.91;55.76;102571.28;2080637;28;20171;-64
2021/12/22 02:28:59;;;;;;;16.02;9.60;;;;;;;-1.21;55.79;102533.13;2080482;28;20206;-64
2021/12/22 02:30:04;;;;;;;11.13;8.15;;;;;;;-0.97;56.36;102577.97;2080419;28;20171;-65
2021/12/22 02:31:04;;;;;;;11.52;8.52;;;;;;;-0.99;56.24;102573.94;2079688;28;20178;-64
2021/12/22 02:33:20;;;;;;;12.82;8.85;;;;;;;-0.98;56.18;102583.72;2080659;28;20260;-65
2021/12/22 02:34:21;;;;;;;12.38;8.80;;;;;;;-1.01;56.47;102573.47;2080280;28;20174;-65
2021/12/22 02:35:40;;;;;;;13.93;9.87;;;;;;;-1.11;56.30;102562.81;2080546;28;20199;-65
2021/12/22 02:36:42;;;;;;;13.50;9.50;;;;;;;-1.03;56.18;102580.31;2080444;28;20159;-64
2021/12/22 02:37:45;;;;;;;12.60;8.80;;;;;;;-1.04;55.98;102576.78;2080534;28;20572;-65
2021/12/22 02:38:48;;;;;;;16.40;8.70;;;;;;;-1.04;55.89;102582.22;2079474;28;20186;-64
2021/12/22 02:39:58;;;;;;;12.05;8.57;;;;;;;-1.04;55.49;102578.72;2080483;28;20184;-64
2021/12/22 02:40:58;;;;;;;12.93;8.32;;;;;;;-1.08;55.42;102581.22;2080918;28;20178;-64
2021/12/22 02:41:59;;;;;;;11.33;8.13;;;;;;;-1.10;55.73;102580.75;2081792;28;20675;-64
2021/12/22 02:43:05;;;;;;;11.17;8.43;;;;;;;-1.11;55.54;102582.66;2081975;28;20171;-65
2021/12/22 02:44:09;;;;;;;12.18;9.05;;;;;;;-1.10;55.30;102583.47;2081757;28;20160;-65
2021/12/22 02:45:12;;;;;;;11.98;8.85;;;;;;;-1.11;55.00;102581.84;2082003;28;20186;-65
2021/12/22 02:46:16;;;;;;;14.05;8.73;;;;;;;-1.15;55.29;102580.84;2081779;28;20637;-64
2021/12/22 02:47:23;;;;;;;13.20;8.57;;;;;;;-1.99;55.22;102444.91;2081875;28;20190;-65
2021/12/22 02:48:29;;;;;;;13.55;8.90;;;;;;;-1.65;55.19;102499.59;2081077;28;20210;-65
2021/12/22 02:49:29;;;;;;;12.43;9.00;;;;;;;-1.21;55.20;102579.38;2082034;28;20551;-64
2021/12/22 02:50:30;;;;;;;12.97;8.30;;;;;;;-1.25;55.47;102570.19;2081284;28;20202;-64
2021/12/22 02:51:30;;;;;;;12.70;8.60;;;;;;;-1.23;56.08;102580.78;2081404;28;20609;-65
2021/12/22 02:52:42;;;;;;;11.40;7.97;;;;;;;-1.27;56.10;102573.22;2081545;28;20680;-65
2021/12/22 02:55:01;;;;;;;12.82;8.68;;;;;;;-1.29;56.22;102563.75;2081845;28;20320;-65
2021/12/22 02:56:12;;;;;;;17.58;8.25;;;;;;;-1.48;56.45;102544.06;2081547;28;20656;-65
2021/12/22 02:57:33;;;;;;;19.23;10.10;;;;;;;-1.39;56.49;102560.47;2082002;28;20167;-65
2021/12/22 02:58:42;;;;;;;12.73;8.27;;;;;;;-1.30;56.78;102566.81;2080901;28;20195;-65
2021/12/22 03:00:06;;;;;;;11.55;8.25;;;;;;;-1.73;57.13;102511.19;2081928;28;20163;-64
2021/12/22 03:02:35;;;;;;;19.42;9.38;;;;;;;-1.38;56.66;102569.13;2081519;28;20756;-64
2021/12/22 03:04:57;;;;;;;18.80;9.00;;;;;;;-1.37;57.97;102564.50;2081834;28;20593;-64
2021/12/22 03:06:00;;;;;;;16.95;8.93;;;;;;;-1.60;57.29;102535.63;2081575;28;20176;-64
2021/12/22 03:07:06;;;;;;;17.15;9.35;;;;;;;-1.45;57.42;102572.56;2081814;28;20173;-64
2021/12/22 03:08:07;;;;;;;17.80;9.75;;;;;;;-1.48;57.65;102571.28;2081028;28;20190;-65
2021/12/22 03:09:20;;;;;;;20.73;9.77;;;;;;;-1.50;56.98;102559.09;2081765;28;20660;-64
2021/12/22 03:10:21;;;;;;;14.98;8.93;;;;;;;-1.48;57.36;102572.06;2081279;28;20189;-64
2021/12/22 03:11:22;;;;;;;21.55;9.02;;;;;;;-2.34;57.25;102443.72;2081190;28;20660;-65
2021/12/22 03:12:23;;;;;;;23.00;9.07;;;;;;;-1.47;57.16;102575.59;2081565;28;20865;-65
2021/12/22 03:13:24;;;;;;;22.23;8.70;;;;;;;-1.47;56.91;102565.50;2081119;28;20193;-65
2021/12/22 03:14:25;;;;;;;18.43;8.20;;;;;;;-1.64;56.78;102537.34;2080912;28;20484;-65
2021/12/22 03:15:26;;;;;;;15.85;7.82;;;;;;;-1.45;57.17;102562.47;2081030;28;20605;-64
2021/12/22 03:16:26;;;;;;;14.47;8.07;;;;;;;-1.40;57.24;102565.09;2081347;28;20181;-64
2021/12/22 03:17:27;;;;;;;21.03;8.93;;;;;;;-1.60;57.02;102526.69;2081695;28;20178;-64
2021/12/22 03:18:27;;;;;;;21.73;9.37;;;;;;;-1.38;57.38;102566.41;2080802;28;20202;-64
2021/12/22 03:19:31;;;;;;;22.97;8.70;;;;;;;-1.38;56.79;102560.97;2081663;28;20179;-65
2021/12/22 03:20:31;;;;;;;20.65;8.45;;;;;;;-1.44;56.71;102553.22;2081043;28;20303;-64
2021/12/22 03:21:32;;;;;;;14.83;7.40;;;;;;;-2.01;56.61;102458.78;2081132;28;20179;-65
2021/12/22 03:22:32;;;;;;;15.73;8.00;;;;;;;-1.36;57.10;102560.66;2081379;28;20181;-64
2021/12/22 03:23:33;;;;;;;27.40;9.50;;;;;;;-1.42;56.54;102554.50;2081701;28;20178;-64
2021/12/22 03:24:35;;;;;;;31.27;9.63;;;;;;;-1.43;55.79;102557.56;2081416;28;20175;-64
2021/12/22 03:25:38;;;;;;;12.43;6.90;;;;;;;-1.43;56.48;102562.19;2081720;28;20173;-65
2021/12/22 03:26:42;;;;;;;13.57;6.95;;;;;;;-2.36;56.44;102445.91;2081405;28;20181;-64
2021/12/22 03:27:46;;;;;;;13.98;7.13;;;;;;;-1.50;56.01;102568.03;2081625;28;20169;-65
2021/12/22 03:28:47;;;;;;;11.65;6.18;;;;;;;-1.50;57.14;102567.25;2080716;28;20200;-65
2021/12/22 03:29:47;;;;;;;19.80;8.00;;;;;;;-1.51;57.05;102574.59;2081542;28;20182;-64
2021/12/22 03:30:48;;;;;;;17.43;8.27;;;;;;;-1.48;56.72;102575.88;2080304;28;20186;-66
2021/12/22 03:31:49;;;;;;;12.93;7.30;;;;;;;-1.47;57.09;102570.16;2081599;28;20190;-64
2021/12/22 03:32:49;;;;;;;11.90;7.30;;;;;;;-2.03;57.03;102476.50;2081268;28;20201;-64
2021/12/22 03:33:50;;;;;;;13.13;7.40;;;;;;;-1.47;57.06;102570.94;2081522;28;20252;-64
2021/12/22 03:34:51;;;;;;;15.13;8.13;;;;;;;-2.25;56.86;102441.91;2081478;28;20166;-64
2021/12/22 03:35:51;;;;;;;11.87;7.47;;;;;;;-1.44;57.17;102577.69;2080702;28;20565;-64
2021/12/22 03:36:52;;;;;;;16.87;7.30;;;;;;;-2.14;57.07;102475.09;2072713;28;20183;-64
2021/12/22 03:37:59;;;;;;;13.97;7.63;;;;;;;-1.41;57.35;102571.66;2080295;28;20168;-65
2021/12/22 03:39:00;;;;;;;17.25;7.70;;;;;;;-1.55;57.26;102551.81;2081464;28;20576;-65
2021/12/22 03:40:01;;;;;;;15.67;7.33;;;;;;;-1.42;57.39;102573.56;2081462;28;20192;-65
2021/12/22 03:41:03;;;;;;;15.03;8.17;;;;;;;-2.00;57.00;102487.53;2080554;28;20210;-65
2021/12/22 03:42:06;;;;;;;11.40;7.15;;;;;;;-1.40;57.24;102570.53;2081356;28;20175;-64
2021/12/22 03:43:07;;;;;;;13.80;7.38;;;;;;;-1.46;57.38;102555.44;2081481;28;20320;-65
2021/12/22 03:44:08;;;;;;;13.97;7.30;;;;;;;-1.38;56.95;102568.34;2081165;28;20224;-64
2021/12/22 03:45:09;;;;;;;12.02;7.35;;;;;;;-1.38;57.18;102566.41;2081448;28;20573;-64
2021/12/22 03:46:09;;;;;;;14.17;7.63;;;;;;;-1.38;57.13;102575.69;2081181;28;20232;-64
2021/12/22 03:47:10;;;;;;;15.70;7.87;;;;;;;-1.38;57.35;102564.78;2081614;28;20200;-64
2021/12/22 03:48:10;;;;;;;10.87;7.10;;;;;;;-1.36;57.52;102571.53;2079925;28;20760;-65
2021/12/22 03:49:12;;;;;;;13.53;7.47;;;;;;;-1.35;57.67;102569.63;2080952;28;20171;-64
2021/12/22 03:50:15;;;;;;;14.45;7.85;;;;;;;-1.33;56.91;102573.66;2081235;28;20263;-64
2021/12/22 03:51:15;;;;;;;11.43;6.80;;;;;;;-2.00;57.19;102456.88;2080153;28;20219;-65
2021/12/22 03:52:16;;;;;;;14.33;7.93;;;;;;;-1.34;57.36;102573.97;2080974;28;20180;-65
2021/12/22 03:53:16;;;;;;;17.00;7.83;;;;;;;-1.33;57.13;102570.13;2081456;28;20187;-64
2021/12/22 03:54:17;;;;;;;8.97;6.73;;;;;;;-1.32;57.42;102564.38;2081150;28;20181;-64
2021/12/22 03:55:17;;;;;;;9.67;6.73;;;;;;;-1.29;57.47;102574.63;2081383;28;20224;-64
2021/12/22 03:56:18;;;;;;;11.47;7.50;;;;;;;-1.27;56.82;102578.66;2081053;28;20192;-64
2021/12/22 03:57:19;;;;;;;11.20;6.95;;;;;;;-1.26;57.04;102572.09;2081451;28;20172;-64
2021/12/22 03:58:20;;;;;;;13.63;7.60;;;;;;;-1.23;56.40;102569.91;2080349;28;20732;-64
2021/12/22 03:59:23;;;;;;;11.50;7.05;;;;;;;-1.24;56.63;102571.03;2081342;28;20180;-64
2021/12/22 04:00:23;;;;;;;11.80;7.65;;;;;;;-1.63;56.70;102502.81;2080744;28;20195;-64
2021/12/22 04:01:24;;;;;;;13.07;7.53;;;;;;;-1.18;56.48;102567.06;2080883;28;20194;-65
2021/12/22 04:02:27;;;;;;;11.77;7.33;;;;;;;-1.20;56.74;102570.09;2081187;28;20828;-64
2021/12/22 04:03:31;;;;;;;15.88;8.10;;;;;;;-1.28;56.15;102564.56;2081228;28;20176;-64
2021/12/22 04:04:32;;;;;;;14.30;7.97;;;;;;;-2.06;56.08;102447.22;2080970;28;20238;-65
2021/12/22 04:05:32;;;;;;;14.20;7.57;;;;;;;-1.30;56.18;102575.75;2081304;28;20207;-65
2021/12/22 04:06:33;;;;;;;10.60;7.13;;;;;;;-1.40;56.45;102550.72;2081032;28;20184;-64
2021/12/22 04:07:34;;;;;;;9.63;6.63;;;;;;;-1.86;56.86;102514.72;2081452;28;20175;-64
2021/12/22 04:08:35;;;;;;;12.03;6.87;;;;;;;-1.35;56.72;102573.13;2080482;28;20256;-65
2021/12/22 04:09:35;;;;;;;10.95;6.97;;;;;;;-1.33;56.46;102577.16;2081382;28;20176;-64
2021/12/22 04:10:36;;;;;;;14.03;7.63;;;;;;;-1.32;56.64;102580.72;2080479;28;20188;-64
2021/12/22 04:11:36;;;;;;;11.47;7.50;;;;;;;-1.42;56.21;102564.59;2081011;28;20276;-64
2021/12/22 04:12:37;;;;;;;13.70;7.80;;;;;;;-1.37;56.22;102576.16;2081017;28;20306;-64
2021/12/22 04:13:37;;;;;;;12.57;7.50;;;;;;;-1.43;56.67;102579.31;2081265;28;20207;-64
2021/12/22 04:14:38;;;;;;;11.03;7.07;;;;;;;-1.37;57.03;102576.16;2081036;28;20253;-64
2021/12/22 04:15:39;;;;;;;8.57;6.40;;;;;;;-1.35;57.64;102575.06;2081274;28;20263;-64
2021/12/22 04:16:39;;;;;;;12.15;7.70;;;;;;;-2.14;56.78;102473.19;2080830;28;20204;-64
2021/12/22 04:17:40;;;;;;;12.07;7.60;;;;;;;-1.35;56.74;102577.78;2081287;28;20184;-64
2021/12/22 04:18:40;;;;;;;10.70;7.17;;;;;;;-1.43;56.83;102573.88;2080320;28;20184;-64
2021/12/22 04:19:41;;;;;;;10.80;6.53;;;;;;;-1.38;57.29;102579.22;2081149;28;20177;-65
2021/12/22 04:20:42;;;;;;;12.30;7.33;;;;;;;-2.49;56.42;102408.72;2080082;28;20176;-64
2021/12/22 04:21:42;;;;;;;12.23;7.30;;;;;;;-1.37;56.38;102589.75;2081223;28;20318;-64
2021/12/22 04:22:43;;;;;;;9.60;6.83;;;;;;;-1.58;56.93;102557.88;2081029;28;20204;-64
2021/12/22 04:23:43;;;;;;;12.03;7.13;;;;;;;-1.39;56.83;102595.81;2081150;28;20204;-64
2021/12/22 04:24:44;;;;;;;13.00;7.80;;;;;;;-1.80;58.39;102521.66;2080361;28;20173;-64
2021/12/22 04:25:46;;;;;;;11.07;7.80;;;;;;;-1.42;57.64;102587.16;2080449;28;20253;-64
2021/12/22 04:26:46;;;;;;;11.05;8.18;;;;;;;-1.64;57.59;102563.72;2080830;28;20239;-65
2021/12/22 04:27:49;;;;;;;14.70;8.70;;;;;;;-1.38;57.37;102586.56;2080371;28;20179;-65
2021/12/22 04:28:49;;;;;;;11.45;7.82;;;;;;;-1.33;57.43;102584.53;2079903;28;20317;-65
2021/12/22 04:29:50;;;;;;;13.23;8.27;;;;;;;-1.38;57.36;102581.13;2081089;28;20180;-64
2021/12/22 04:30:51;;;;;;;12.13;7.10;;;;;;;-1.29;57.08;102588.22;2080132;28;20173;-65
2021/12/22 04:31:51;;;;;;;12.23;8.13;;;;;;;-1.28;57.29;102606.19;2080977;28;20554;-64
2021/12/22 04:32:52;;;;;;;13.73;7.43;;;;;;;-1.38;57.06;102565.63;2081057;28;20674;-65
2021/12/22 04:33:53;;;;;;;12.73;7.37;;;;;;;-1.24;57.27;102592.78;2080723;28;20196;-64
2021/12/22 04:34:53;;;;;;;11.60;7.07;;;;;;;-2.41;56.96;102407.22;2080988;28;20307;-65
2021/12/22 04:35:55;;;;;;;10.13;7.50;;;;;;;-1.25;57.41;102594.69;2080958;28;20725;-64
2021/12/22 04:36:56;;;;;;;10.80;7.32;;;;;;;-1.23;57.50;102592.44;2081086;28;20176;-64
2021/12/22 04:37:56;;;;;;;11.20;7.37;;;;;;;-1.19;57.93;102595.38;2080284;28;20180;-65
2021/12/22 04:38:59;;;;;;;10.53;6.97;;;;;;;-1.18;57.30;102595.06;2080925;28;20657;-64
2021/12/22 04:40:00;;;;;;;11.85;7.50;;;;;;;-2.00;57.66;102467.75;2080730;28;20264;-65
2021/12/22 04:41:00;;;;;;;16.47;7.70;;;;;;;-1.35;56.97;102559.53;2079971;28;20196;-64
2021/12/22 04:42:01;;;;;;;12.83;7.63;;;;;;;-1.13;56.97;102596.88;2080821;28;20714;-64
2021/12/22 04:43:02;;;;;;;12.80;7.27;;;;;;;-1.13;57.18;102599.59;2081192;28;20182;-64
2021/12/22 04:44:03;;;;;;;11.98;7.30;;;;;;;-1.18;57.03;102580.66;2080894;28;20203;-64
2021/12/22 04:45:06;;;;;;;11.90;7.68;;;;;;;-1.07;56.74;102601.91;2081077;28;20219;-64
2021/12/22 04:46:07;;;;;;;12.15;7.28;;;;;;;-1.85;57.25;102481.00;2080769;28;20171;-64
2021/12/22 04:47:07;;;;;;;9.87;6.97;;;;;;;-1.12;57.29;102593.84;2081052;28;20183;-64
2021/12/22 04:48:10;;;;;;;11.03;7.10;;;;;;;-1.30;56.90;102554.00;2079959;28;20195;-64
2021/12/22 04:49:10;;;;;;;13.48;6.80;;;;;;;-0.99;56.68;102603.09;2080929;28;20171;-64
2021/12/22 04:50:16;;;;;;;9.33;7.07;;;;;;;-1.96;56.91;102463.31;2080759;28;20235;-64
2021/12/22 04:51:26;;;;;;;9.90;7.32;;;;;;;-1.49;56.62;102538.94;2080362;28;20170;-64
2021/12/22 04:52:36;;;;;;;11.52;7.30;;;;;;;-0.92;56.74;102602.34;2080645;28;20207;-64
2021/12/22 04:53:47;;;;;;;12.38;7.57;;;;;;;-1.34;56.88;102533.94;2080997;28;20164;-65
2021/12/22 04:55:03;;;;;;;12.15;7.82;;;;;;;-0.88;56.39;102606.06;2080682;28;20183;-64
2021/12/22 04:56:03;;;;;;;11.50;8.38;;;;;;;-0.89;56.51;102606.38;2080648;28;20187;-65
2021/12/22 04:57:04;;;;;;;12.20;8.00;;;;;;;-0.92;56.48;102598.84;2081043;28;20188;-65
2021/12/22 04:58:05;;;;;;;15.70;8.47;;;;;;;-0.93;56.31;102608.09;2080041;28;20190;-65